CHD weather

Chandler Municipal Airport
Chandler, Arizona, United States

Public forecast

Using degrees Fahrenheit for public forecast. Weather courtesy of forecast.io.

METAR (pilot weather report)

Report is more than 2 hours old.

Retrieved 2019/06/25 03:47 UTC (5 hours ago):

KCHD 250347Z 36003KT 10SM CLR 34/M05 A2973 RMK LAST

TAF (pilot weather forecast)

Closest forecast is Phoenix-Mesa-Gateway Airport, 8.2 nm (15.1 km) ENE. Retrieved 2019/06/25 06:34 UTC (3 hours ago):

TAF KIWA 250532Z 2506/2606 12007KT P6SM SKC FM251800 25009KT P6SM FEW250 AMD LTD TO CLD VIS AND WIND TIL 251200